Time;durP1;ratioP1;P1;durP2;ratioP2;P2;SDS_P1;SDS_P2;PMS_P1;PMS_P2;Temp;Humidity;BMP_temperature;BMP_pressure;BME280_temperature;BME280_humidity;BME280_pressure;Samples;Min_cycle;Max_cycle;Signal;HPM_P1;HPM_P2
2021/04/12 00:01:11;;;;;;;3.10;2.80;;;4.60;99.90;;;;;;5045500;28;20205;-72
2021/04/12 00:03:47;;;;;;;2.95;2.70;;;4.50;99.90;;;;;;5045349;28;20216;-72
2021/04/12 00:06:19;;;;;;;2.65;2.45;;;4.50;99.90;;;;;;5045190;28;20208;-72
2021/04/12 00:08:54;;;;;;;3.50;3.10;;;4.40;99.90;;;;;;5044125;28;20221;-71
2021/04/12 00:11:29;;;;;;;2.67;2.47;;;4.30;99.90;;;;;;5045074;28;20204;-72
2021/04/12 00:14:00;;;;;;;2.60;2.40;;;4.20;99.90;;;;;;5044872;28;20206;-71
2021/04/12 00:16:33;;;;;;;3.33;3.03;;;4.20;99.90;;;;;;5045484;28;20208;-70
2021/04/12 00:19:04;;;;;;;3.30;3.00;;;4.30;99.90;;;;;;5044672;28;20278;-72
2021/04/12 00:21:39;;;;;;;3.10;2.80;;;4.20;99.90;;;;;;5131450;22;20200;-73
2021/04/12 00:24:11;;;;;;;3.70;3.40;;;4.20;99.90;;;;;;5045651;28;20196;-72
2021/04/12 00:26:46;;;;;;;4.15;3.78;;;4.30;99.90;;;;;;5048588;28;20220;-73
2021/04/12 00:29:17;;;;;;;2.70;2.50;;;4.20;99.90;;;;;;5048033;28;20224;-73
2021/04/12 00:31:49;;;;;;;3.78;3.47;;;4.20;99.90;;;;;;5048125;28;20201;-73
2021/04/12 00:34:21;;;;;;;3.30;3.00;;;4.20;99.90;;;;;;5065382;28;20679;-73
2021/04/12 00:36:54;;;;;;;3.10;2.90;;;4.20;99.90;;;;;;5067968;28;20281;-72
2021/04/12 00:39:27;;;;;;;3.22;2.95;;;4.10;99.90;;;;;;5067638;28;20598;-73
2021/04/12 00:42:06;;;;;;;3.45;3.15;;;4.10;99.90;;;;;;5068518;28;20205;-73
2021/04/12 00:44:55;;;;;;;4.13;3.70;;;4.00;99.90;;;;;;5064303;28;20614;-73
2021/04/12 00:47:33;;;;;;;4.10;3.80;;;4.00;99.90;;;;;;5047826;28;20253;-72
2021/04/12 00:50:20;;;;;;;3.85;3.25;;;3.90;99.90;;;;;;5047909;28;20197;-73
2021/04/12 00:53:25;;;;;;;4.00;3.60;;;3.90;99.90;;;;;;5048036;28;20197;-73
2021/04/12 00:55:55;;;;;;;3.50;3.20;;;3.90;99.90;;;;;;5041208;28;20204;-73
2021/04/12 00:58:33;;;;;;;3.95;3.60;;;3.90;99.90;;;;;;5047087;28;20235;-73
2021/04/12 01:01:12;;;;;;;3.90;3.50;;;3.90;99.90;;;;;;5048102;28;20212;-73
2021/04/12 01:04:02;;;;;;;3.65;3.35;;;3.80;99.90;;;;;;5048068;28;20216;-72
2021/04/12 01:06:45;;;;;;;3.40;3.10;;;3.80;99.90;;;;;;5047716;28;20205;-73
2021/04/12 01:09:40;;;;;;;3.60;3.30;;;3.80;99.90;;;;;;5047297;28;20225;-73
2021/04/12 01:13:05;;;;;;;4.10;3.70;;;3.80;99.90;;;;;;5047972;28;20201;-73
2021/04/12 01:15:56;;;;;;;3.88;3.55;;;3.80;99.90;;;;;;4970532;28;20211;-73
2021/04/12 01:18:47;;;;;;;4.20;3.80;;;3.70;99.90;;;;;;4969579;28;20235;-72
2021/04/12 01:22:02;;;;;;;3.60;3.30;;;3.70;99.90;;;;;;5050822;28;20244;-73
2021/04/12 01:25:20;;;;;;;4.05;3.75;;;3.80;99.90;;;;;;5071349;28;20208;-73
2021/04/12 01:28:26;;;;;;;5.07;4.13;;;3.70;99.90;;;;;;5009325;28;20218;-73
2021/04/12 01:31:46;;;;;;;3.67;3.38;;;3.60;99.90;;;;;;5009606;28;20198;-73
2021/04/12 01:34:48;;;;;;;4.68;4.28;;;3.60;99.90;;;;;;5071455;28;20209;-73
2021/04/12 01:37:33;;;;;;;4.47;4.07;;;3.50;99.90;;;;;;5071345;28;20233;-73
2021/04/12 01:40:24;;;;;;;4.53;4.13;;;3.50;99.90;;;;;;5070904;28;20580;-73
2021/04/12 01:43:02;;;;;;;4.30;3.90;;;3.50;99.90;;;;;;5071263;28;20204;-73
2021/04/12 01:45:38;;;;;;;4.65;4.25;;;3.50;99.90;;;;;;5070975;28;20208;-73
2021/04/12 01:48:21;;;;;;;4.65;4.25;;;3.40;99.90;;;;;;5070494;28;20216;-74
2021/04/12 01:51:12;;;;;;;4.93;4.43;;;3.40;99.90;;;;;;5071240;28;20200;-73
2021/04/12 01:54:13;;;;;;;4.25;3.85;;;3.40;99.90;;;;;;5037090;28;20227;-73
2021/04/12 01:56:50;;;;;;;4.25;3.85;;;3.40;99.90;;;;;;5070639;28;20200;-73
2021/04/12 01:59:30;;;;;;;4.90;4.40;;;3.30;99.90;;;;;;5070343;28;20698;-73
2021/04/12 02:02:12;;;;;;;4.50;4.10;;;3.30;99.90;;;;;;5071083;28;20208;-73
2021/04/12 02:04:59;;;;;;;4.53;4.13;;;3.30;99.90;;;;;;5070581;28;20204;-73
2021/04/12 02:07:37;;;;;;;4.45;4.05;;;3.40;99.90;;;;;;5070263;28;20200;-73
2021/04/12 02:10:22;;;;;;;3.92;3.63;;;3.30;99.90;;;;;;5070369;28;20204;-72
2021/04/12 02:12:58;;;;;;;4.40;4.00;;;3.30;99.90;;;;;;5071009;28;20204;-74
2021/04/12 02:15:43;;;;;;;3.85;3.53;;;3.20;99.90;;;;;;5070659;28;20219;-73
2021/04/12 02:18:26;;;;;;;3.88;3.55;;;3.20;99.90;;;;;;5070020;28;20246;-73
2021/04/12 02:20:58;;;;;;;3.90;3.47;;;3.10;99.90;;;;;;5070747;28;20208;-74
2021/04/12 02:23:40;;;;;;;3.97;3.65;;;3.10;99.90;;;;;;5070283;28;20208;-73
2021/04/12 02:26:33;;;;;;;4.47;3.90;;;3.10;99.90;;;;;;5070147;28;20200;-73
2021/04/12 02:29:17;;;;;;;3.78;3.47;;;3.10;99.90;;;;;;5061682;28;20225;-73
2021/04/12 02:31:51;;;;;;;4.22;3.85;;;3.20;99.90;;;;;;5070253;28;21101;-72
2021/04/12 02:34:36;;;;;;;4.78;4.38;;;3.20;99.90;;;;;;5070540;28;20205;-73
2021/04/12 02:37:27;;;;;;;4.57;3.90;;;3.10;99.90;;;;;;5070102;28;20216;-73
2021/04/12 02:40:05;;;;;;;4.25;3.85;;;3.10;99.90;;;;;;5060910;28;20566;-73
2021/04/12 02:42:43;;;;;;;4.00;3.60;;;3.10;99.90;;;;;;5070086;28;20196;-73
2021/04/12 02:45:31;;;;;;;4.53;4.13;;;3.00;99.90;;;;;;5070126;28;20208;-73
2021/04/12 02:48:13;;;;;;;4.43;4.03;;;3.00;99.90;;;;;;5066576;28;20224;-73
2021/04/12 02:51:04;;;;;;;4.70;4.25;;;3.00;99.90;;;;;;5069709;28;20208;-72
2021/04/12 02:53:54;;;;;;;5.00;4.57;;;3.00;99.90;;;;;;5069485;28;20261;-73
2021/04/12 02:56:33;;;;;;;5.15;4.65;;;3.00;99.90;;;;;;5069886;28;20207;-73
2021/04/12 02:59:15;;;;;;;5.93;4.78;;;3.00;99.90;;;;;;5069034;28;20317;-73
2021/04/12 03:02:25;;;;;;;5.53;5.05;;;3.00;99.90;;;;;;5069258;28;20200;-73
2021/04/12 03:04:56;;;;;;;5.40;4.90;;;3.00;99.90;;;;;;5069638;28;20257;-73
2021/04/12 03:07:51;;;;;;;4.97;4.47;;;2.90;99.90;;;;;;5069479;28;20694;-74
2021/04/12 03:10:27;;;;;;;5.15;4.60;;;2.90;99.90;;;;;;5069289;28;20201;-73
2021/04/12 03:13:05;;;;;;;5.10;4.57;;;2.90;99.90;;;;;;5069744;28;20196;-73
2021/04/12 03:16:05;;;;;;;4.40;4.00;;;2.90;99.90;;;;;;5069238;28;20196;-73
2021/04/12 03:19:00;;;;;;;5.18;4.78;;;2.90;99.90;;;;;;5068061;28;20292;-72
2021/04/12 03:21:55;;;;;;;4.75;4.35;;;2.90;99.90;;;;;;5068987;28;20200;-73
2021/04/12 03:24:26;;;;;;;6.63;5.00;;;3.00;99.90;;;;;;5069294;28;20196;-73
2021/04/12 03:27:23;;;;;;;5.00;4.50;;;2.90;99.90;;;;;;5069280;28;20204;-72
2021/04/12 03:30:01;;;;;;;5.75;5.05;;;2.80;99.90;;;;;;5068770;28;20200;-73
2021/04/12 03:32:59;;;;;;;5.15;4.65;;;2.90;99.90;;;;;;5069115;28;20729;-73
2021/04/12 03:35:40;;;;;;;5.07;4.22;;;2.90;99.90;;;;;;5069504;28;20211;-73
2021/04/12 03:38:21;;;;;;;5.00;4.50;;;2.80;99.90;;;;;;5068752;28;20246;-73
2021/04/12 03:41:06;;;;;;;6.20;5.32;;;2.80;99.90;;;;;;5069711;28;20207;-73
2021/04/12 03:43:48;;;;;;;5.40;4.90;;;2.80;99.90;;;;;;5069416;28;20824;-73
2021/04/12 03:46:28;;;;;;;5.35;4.75;;;2.90;99.90;;;;;;5069447;28;20204;-73
2021/04/12 03:49:31;;;;;;;4.90;4.40;;;2.90;99.90;;;;;;5068822;28;20216;-72
2021/04/12 03:52:23;;;;;;;5.82;4.88;;;2.90;99.90;;;;;;5069769;28;20213;-72
2021/04/12 03:54:58;;;;;;;6.47;5.20;;;2.90;99.90;;;;;;5069410;28;20698;-73
2021/04/12 03:57:55;;;;;;;6.05;4.72;;;2.90;99.90;;;;;;5069088;28;20587;-72
2021/04/12 04:00:37;;;;;;;5.32;4.32;;;2.80;99.90;;;;;;5069759;28;20239;-72
2021/04/12 04:03:25;;;;;;;5.72;5.10;;;2.80;99.90;;;;;;5069424;28;20229;-72
2021/04/12 04:06:22;;;;;;;6.65;4.95;;;2.80;99.90;;;;;;5069279;28;20208;-73
2021/04/12 04:09:01;;;;;;;5.85;5.25;;;2.90;99.90;;;;;;5068534;28;20234;-72
2021/04/12 04:11:46;;;;;;;7.60;5.55;;;2.90;99.90;;;;;;5068993;28;20204;-73
2021/04/12 04:14:30;;;;;;;6.10;5.35;;;2.80;99.90;;;;;;5069241;28;20201;-73
2021/04/12 04:17:16;;;;;;;5.00;4.53;;;2.80;99.90;;;;;;5068936;28;20221;-72
2021/04/12 04:19:53;;;;;;;6.93;5.57;;;2.80;99.90;;;;;;5068309;28;20227;-72
2021/04/12 04:22:53;;;;;;;6.90;4.72;;;2.80;99.90;;;;;;5069228;28;20204;-72
2021/04/12 04:25:51;;;;;;;6.05;5.22;;;2.80;99.90;;;;;;5067648;28;20199;-72
2021/04/12 04:28:38;;;;;;;7.18;6.50;;;2.80;99.90;;;;;;5067674;28;20450;-71
2021/04/12 04:31:25;;;;;;;6.00;5.40;;;2.90;99.90;;;;;;5069145;28;20253;-71
2021/04/12 04:34:26;;;;;;;5.55;5.05;;;2.80;99.90;;;;;;5068911;28;20258;-71
2021/04/12 04:37:05;;;;;;;5.07;4.63;;;2.90;99.90;;;;;;5063451;28;20227;-71
2021/04/12 04:39:48;;;;;;;6.38;4.95;;;2.90;99.90;;;;;;5068034;28;20243;-71
2021/04/12 04:42:41;;;;;;;5.05;4.45;;;2.90;99.90;;;;;;5068772;28;20207;-71
2021/04/12 04:45:24;;;;;;;5.22;4.65;;;2.80;99.90;;;;;;5068749;28;20204;-71
2021/04/12 04:48:07;;;;;;;4.05;3.65;;;2.80;99.90;;;;;;5069930;28;20213;-71
2021/04/12 04:51:06;;;;;;;4.68;4.20;;;2.70;99.90;;;;;;5072825;28;20246;-72
2021/04/12 04:53:55;;;;;;;4.78;4.20;;;2.80;99.90;;;;;;5051710;28;20220;-71
2021/04/12 04:56:33;;;;;;;4.65;4.18;;;2.70;99.90;;;;;;5072601;28;20207;-71
2021/04/12 04:59:08;;;;;;;3.72;3.40;;;2.70;99.90;;;;;;5072136;28;20220;-71
2021/04/12 05:01:53;;;;;;;3.97;3.63;;;2.70;99.90;;;;;;5072401;28;20211;-71
2021/04/12 05:04:46;;;;;;;3.92;3.63;;;2.70;99.90;;;;;;5072515;28;20662;-71
2021/04/12 05:07:41;;;;;;;4.38;3.85;;;2.70;99.90;;;;;;5038531;28;20204;-71
2021/04/12 05:10:24;;;;;;;5.03;4.18;;;2.70;99.90;;;;;;5071868;28;20200;-71
2021/04/12 05:13:07;;;;;;;3.60;3.30;;;2.70;99.90;;;;;;5072502;28;20621;-71
2021/04/12 05:16:13;;;;;;;4.03;3.63;;;2.70;99.90;;;;;;5072175;28;20203;-71
2021/04/12 05:18:58;;;;;;;3.88;3.53;;;2.60;99.90;;;;;;5071454;28;20595;-72
2021/04/12 05:21:46;;;;;;;4.07;3.60;;;2.60;99.90;;;;;;5071326;28;20586;-71
2021/04/12 05:24:38;;;;;;;3.83;3.47;;;2.60;99.90;;;;;;5071989;28;20670;-71
2021/04/12 05:27:26;;;;;;;3.63;3.33;;;2.50;99.90;;;;;;5072200;28;20204;-71
2021/04/12 05:30:23;;;;;;;3.67;3.38;;;2.50;99.90;;;;;;5071946;28;20208;-71
2021/04/12 05:32:57;;;;;;;4.85;4.32;;;2.50;99.90;;;;;;5072145;28;20215;-70
2021/04/12 05:35:37;;;;;;;4.80;4.05;;;2.50;99.90;;;;;;5071875;28;20204;-71
2021/04/12 05:38:28;;;;;;;4.47;4.07;;;2.50;99.90;;;;;;5071345;28;20238;-72
2021/04/12 05:41:13;;;;;;;4.65;4.25;;;2.50;99.90;;;;;;5058623;28;20204;-72
2021/04/12 05:44:01;;;;;;;4.30;3.90;;;2.60;99.90;;;;;;5071575;28;20211;-71
2021/04/12 05:46:49;;;;;;;5.72;4.70;;;2.50;99.90;;;;;;5071535;28;20204;-71
2021/04/12 05:49:59;;;;;;;5.10;4.28;;;2.60;99.90;;;;;;5066343;28;20757;-71
2021/04/12 05:53:03;;;;;;;5.05;4.55;;;2.60;99.90;;;;;;5061785;28;20577;-71
2021/04/12 05:55:47;;;;;;;5.53;4.75;;;2.60;99.90;;;;;;5060236;28;20208;-71
2021/04/12 05:58:40;;;;;;;5.05;4.55;;;2.70;99.90;;;;;;5050967;28;20720;-71
2021/04/12 06:01:23;;;;;;;6.38;5.45;;;2.60;99.90;;;;;;5051054;28;20247;-71
2021/04/12 06:03:59;;;;;;;5.70;4.97;;;2.70;99.90;;;;;;5051528;28;20201;-71
2021/04/12 06:06:53;;;;;;;5.88;5.30;;;2.70;99.90;;;;;;5050990;28;20258;-71
2021/04/12 06:09:39;;;;;;;5.40;4.90;;;2.70;99.90;;;;;;5050638;28;20545;-71
2021/04/12 06:12:47;;;;;;;6.78;5.85;;;2.80;99.90;;;;;;5051143;28;20579;-71
2021/04/12 06:15:58;;;;;;;7.45;6.47;;;2.80;99.90;;;;;;5051523;28;21014;-72
2021/04/12 06:21:54;;;;;;;8.30;6.25;;;2.90;99.90;;;;;;5424838;22;20624;-92
2021/04/12 06:24:58;;;;;;;8.75;6.68;;;2.90;99.90;;;;;;4994436;28;20274;-94
2021/04/12 06:27:48;;;;;;;7.03;6.25;;;2.90;99.90;;;;;;4987778;28;20231;-92
2021/04/12 06:30:36;;;;;;;9.77;6.93;;;3.00;99.90;;;;;;4996789;28;20291;-92
2021/04/12 06:33:45;;;;;;;;;;;;;;;;;;;;;
2021/04/12 06:39:53;;;;;;;6.90;6.18;;;3.30;99.90;;;;;;5061881;22;20720;-73
2021/04/12 06:43:04;;;;;;;7.75;6.00;;;3.30;99.90;;;;;;5032607;28;20204;-74
2021/04/12 06:46:21;;;;;;;7.95;6.95;;;3.40;99.90;;;;;;5026885;28;20205;-74
2021/04/12 06:49:35;;;;;;;8.95;6.65;;;3.40;99.90;;;;;;5037529;28;20709;-73
2021/04/12 06:52:26;;;;;;;7.40;6.28;;;3.40;99.90;;;;;;5031869;28;20201;-74
2021/04/12 06:55:19;;;;;;;7.85;6.70;;;3.50;99.90;;;;;;5030206;28;20202;-73
2021/04/12 06:58:19;;;;;;;7.38;6.55;;;3.50;99.90;;;;;;5037794;28;20282;-73
2021/04/12 07:01:22;;;;;;;6.95;6.22;;;3.50;99.90;;;;;;5047751;28;20197;-73
2021/04/12 07:04:23;;;;;;;8.38;5.82;;;3.50;99.90;;;;;;5036440;28;20275;-73
2021/04/12 07:07:20;;;;;;;8.48;7.03;;;3.50;99.90;;;;;;5028267;28;20674;-73
2021/04/12 07:10:22;;;;;;;7.53;6.47;;;3.50;99.90;;;;;;5027894;28;20225;-73
2021/04/12 07:13:01;;;;;;;8.15;7.30;;;3.50;99.90;;;;;;5003532;28;20201;-73
2021/04/12 07:16:13;;;;;;;8.55;7.22;;;3.50;99.90;;;;;;5020417;28;20850;-73
2021/04/12 07:19:34;;;;;;;11.00;7.32;;;3.50;99.90;;;;;;5040539;28;20229;-73
2021/04/12 07:23:00;;;;;;;8.70;6.90;;;3.50;99.90;;;;;;5004756;28;20205;-73
2021/04/12 07:26:01;;;;;;;9.25;7.20;;;3.40;99.90;;;;;;4998259;28;20201;-73
2021/04/12 07:31:38;;;;;;;10.07;7.90;;;3.40;99.90;;;;;;5056642;28;20267;-71
2021/04/12 07:34:47;;;;;;;8.98;7.82;;;3.50;99.90;;;;;;5124808;27;20533;-69
2021/04/12 07:37:42;;;;;;;8.73;7.85;;;3.50;99.90;;;;;;5120278;28;20198;-68
2021/04/12 07:40:55;;;;;;;10.55;8.35;;;3.50;99.90;;;;;;5102973;28;20199;-68
2021/04/12 07:43:58;;;;;;;14.30;8.80;;;3.60;99.90;;;;;;5066986;28;20658;-68
2021/04/12 07:47:11;;;;;;;10.48;8.65;;;3.60;99.90;;;;;;5096694;28;20356;-68
2021/04/12 07:50:13;;;;;;;13.32;10.40;;;3.60;99.90;;;;;;5016141;28;20214;-68
2021/04/12 07:53:15;;;;;;;15.23;10.77;;;3.60;99.90;;;;;;5008010;28;20794;-68
2021/04/12 07:56:17;;;;;;;11.45;9.10;;;3.70;99.90;;;;;;5098901;28;20577;-68
2021/04/12 07:59:31;;;;;;;10.85;9.70;;;3.70;99.90;;;;;;5105344;28;20234;-68
2021/04/12 08:02:34;;;;;;;13.05;10.15;;;3.80;99.90;;;;;;5068688;28;20260;-68
2021/04/12 08:05:46;;;;;;;11.43;9.32;;;3.80;99.90;;;;;;5105846;28;20207;-68
2021/04/12 08:08:46;;;;;;;12.93;10.30;;;3.80;99.90;;;;;;5105769;28;20222;-68
2021/04/12 08:11:51;;;;;;;13.35;10.25;;;3.90;99.90;;;;;;5105031;28;20199;-69
2021/04/12 08:15:06;;;;;;;11.65;9.20;;;4.10;99.90;;;;;;5060631;28;20199;-69
2021/04/12 08:17:59;;;;;;;12.48;9.35;;;4.20;99.90;;;;;;5105177;28;20207;-68
2021/04/12 08:21:05;;;;;;;12.40;10.40;;;4.20;99.90;;;;;;5104979;28;20199;-68
2021/04/12 08:24:07;;;;;;;11.32;9.98;;;4.40;99.90;;;;;;5106314;28;20244;-70
2021/04/12 08:27:11;;;;;;;12.10;10.10;;;4.60;99.90;;;;;;5105126;28;20229;-69
2021/04/12 08:30:15;;;;;;;12.88;10.18;;;4.90;99.90;;;;;;5069982;28;20223;-68
2021/04/12 08:33:35;;;;;;;12.38;9.00;;;5.00;99.90;;;;;;5104479;28;20604;-70
2021/04/12 08:36:39;;;;;;;10.50;8.90;;;5.00;99.90;;;;;;5104877;28;20203;-69
2021/04/12 08:39:37;;;;;;;9.77;8.77;;;5.00;99.90;;;;;;5104750;28;20223;-69
2021/04/12 08:42:22;;;;;;;10.20;8.93;;;4.90;99.90;;;;;;5105157;28;20206;-69
2021/04/12 08:45:40;;;;;;;10.07;9.07;;;4.70;99.90;;;;;;5095202;28;20264;-69
2021/04/12 08:48:36;;;;;;;11.45;8.38;;;4.60;99.90;;;;;;5091502;28;20226;-68
2021/04/12 08:51:44;;;;;;;16.05;10.23;;;4.60;99.90;;;;;;5073845;28;20211;-69
2021/04/12 08:54:45;;;;;;;12.07;9.65;;;4.60;99.90;;;;;;5091375;28;20688;-69
2021/04/12 08:57:34;;;;;;;10.02;8.38;;;4.80;99.90;;;;;;5091419;28;20204;-69
2021/04/12 09:00:32;;;;;;;9.15;8.25;;;5.00;99.90;;;;;;5089157;28;20192;-69
2021/04/12 09:03:41;;;;;;;10.43;8.50;;;5.20;99.90;;;;;;5088651;28;20557;-69
2021/04/12 09:07:02;;;;;;;10.15;7.85;;;5.30;99.90;;;;;;5090569;28;20568;-70
2021/04/12 09:10:24;;;;;;;7.60;6.50;;;5.40;99.90;;;;;;5087350;28;20216;-69
2021/04/12 09:13:30;;;;;;;8.90;7.43;;;5.40;99.90;;;;;;5087751;28;20219;-69
2021/04/12 09:16:35;;;;;;;7.30;6.60;;;5.30;99.90;;;;;;5014197;28;20388;-69
2021/04/12 09:19:35;;;;;;;8.95;7.43;;;5.30;99.90;;;;;;5004821;28;20230;-69
2021/04/12 09:22:39;;;;;;;8.30;6.53;;;5.40;99.90;;;;;;5089172;28;20226;-68
2021/04/12 09:25:42;;;;;;;7.50;6.78;;;5.40;99.90;;;;;;5090237;28;20192;-69
2021/04/12 09:28:46;;;;;;;7.10;6.40;;;5.50;99.90;;;;;;5087391;28;20697;-70
2021/04/12 09:31:44;;;;;;;6.63;5.95;;;5.60;99.90;;;;;;5078005;28;20206;-69
2021/04/12 09:34:42;;;;;;;9.10;6.20;;;5.60;99.90;;;;;;5087072;28;20701;-69
2021/04/12 09:37:47;;;;;;;7.85;6.25;;;5.70;99.90;;;;;;5087452;28;20275;-69
2021/04/12 09:40:53;;;;;;;7.15;6.45;;;6.00;99.90;;;;;;5087886;28;20257;-69
2021/04/12 09:43:55;;;;;;;6.25;5.00;;;6.10;99.90;;;;;;5088434;28;20192;-69
2021/04/12 09:47:10;;;;;;;5.28;4.78;;;6.30;99.90;;;;;;5083344;28;20666;-69
2021/04/12 09:50:09;;;;;;;6.60;5.75;;;6.40;99.90;;;;;;5087339;28;20262;-69
2021/04/12 09:52:56;;;;;;;7.68;5.05;;;6.40;99.90;;;;;;5088015;28;20219;-69
2021/04/12 09:55:56;;;;;;;5.90;5.32;;;6.40;99.90;;;;;;5087980;28;20195;-68
2021/04/12 09:59:16;;;;;;;5.00;4.20;;;6.40;99.90;;;;;;5088558;28;20294;-69
2021/04/12 10:02:34;;;;;;;5.35;4.40;;;6.50;99.90;;;;;;5086302;28;20658;-69
2021/04/12 10:05:14;;;;;;;6.05;4.50;;;6.50;99.90;;;;;;5089194;28;20207;-69
2021/04/12 10:08:07;;;;;;;5.15;4.65;;;6.80;99.90;;;;;;5092419;28;20192;-71
2021/04/12 10:10:47;;;;;;;4.70;4.05;;;7.30;99.90;;;;;;5090254;28;20264;-70
2021/04/12 10:13:26;;;;;;;4.47;3.80;;;7.10;99.90;;;;;;5089871;28;20341;-70
2021/04/12 10:16:03;;;;;;;5.25;3.97;;;6.80;99.90;;;;;;5089494;28;20207;-70
2021/04/12 10:18:39;;;;;;;4.47;4.05;;;6.80;99.90;;;;;;5089806;28;20250;-70
2021/04/12 10:21:25;;;;;;;5.70;3.70;;;6.50;99.90;;;;;;5089435;28;20690;-70
2021/04/12 10:23:55;;;;;;;4.60;4.10;;;6.60;99.90;;;;;;5088925;28;20203;-70
2021/04/12 10:26:25;;;;;;;6.32;4.35;;;6.70;99.90;;;;;;5089492;28;20612;-70
2021/04/12 10:29:03;;;;;;;5.47;4.10;;;6.70;99.90;;;;;;5094541;28;20336;-70
2021/04/12 10:31:34;;;;;;;8.27;4.30;;;6.50;99.90;;;;;;5094447;28;20601;-70
2021/04/12 10:34:16;;;;;;;6.72;3.60;;;6.50;99.90;;;;;;5088901;28;20215;-70
2021/04/12 10:36:52;;;;;;;4.93;3.78;;;6.70;99.70;;;;;;5088241;28;20220;-70
2021/04/12 10:39:36;;;;;;;3.50;3.20;;;7.10;99.60;;;;;;5088103;28;20227;-70
2021/04/12 10:42:08;;;;;;;3.88;3.40;;;7.60;99.20;;;;;;5088338;28;20196;-70
2021/04/12 10:44:40;;;;;;;6.78;3.53;;;8.20;98.10;;;;;;5088109;28;20444;-70
2021/04/12 10:47:15;;;;;;;3.47;3.13;;;8.50;99.50;;;;;;5088379;28;20671;-70
2021/04/12 10:49:52;;;;;;;4.47;3.53;;;8.80;97.60;;;;;;5087701;28;20264;-71
2021/04/12 10:52:22;;;;;;;4.10;3.33;;;9.10;96.10;;;;;;5086122;28;20191;-70
2021/04/12 10:55:04;;;;;;;3.65;3.35;;;9.30;95.50;;;;;;5088198;28;20200;-70
2021/04/12 10:57:41;;;;;;;4.63;3.25;;;9.70;95.00;;;;;;5088093;28;20199;-70
2021/04/12 11:00:25;;;;;;;3.47;3.00;;;9.60;93.90;;;;;;5087940;28;20677;-71
2021/04/12 11:03:17;;;;;;;3.30;3.00;;;9.30;93.90;;;;;;5087931;28;20200;-70
2021/04/12 11:05:46;;;;;;;3.00;2.55;;;9.10;94.00;;;;;;5088795;28;20206;-70
2021/04/12 11:08:28;;;;;;;2.80;2.60;;;9.20;95.60;;;;;;5088399;28;20837;-70
2021/04/12 11:11:08;;;;;;;4.07;3.38;;;9.60;93.00;;;;;;5088441;28;20581;-70
2021/04/12 11:13:36;;;;;;;4.03;3.47;;;9.90;91.20;;;;;;5088386;28;20740;-70
2021/04/12 11:16:10;;;;;;;3.35;2.75;;;9.60;91.60;;;;;;5087814;28;20195;-70
2021/04/12 11:18:49;;;;;;;5.55;3.25;;;8.90;91.70;;;;;;5087561;28;20214;-70
2021/04/12 11:21:24;;;;;;;5.25;3.38;;;8.50;92.40;;;;;;5087806;28;20574;-70
2021/04/12 11:24:01;;;;;;;3.65;3.15;;;8.10;93.20;;;;;;5087636;28;20199;-70
2021/04/12 11:27:07;;;;;;;3.35;2.90;;;7.70;93.20;;;;;;5087928;28;20187;-70
2021/04/12 11:29:38;;;;;;;5.72;4.40;;;7.40;94.20;;;;;;5086796;28;20585;-70
2021/04/12 11:32:13;;;;;;;3.83;3.03;;;7.10;94.10;;;;;;5088282;28;20268;-70
2021/04/12 11:34:43;;;;;;;3.13;2.60;;;7.00;95.90;;;;;;5088448;28;20260;-70
2021/04/12 11:37:20;;;;;;;3.55;2.90;;;7.10;95.60;;;;;;5088519;28;20292;-70
2021/04/12 11:39:54;;;;;;;3.30;3.00;;;7.10;93.80;;;;;;5088065;28;20215;-70
2021/04/12 11:42:25;;;;;;;2.65;2.45;;;7.30;92.60;;;;;;5088730;28;20200;-70
2021/04/12 11:44:59;;;;;;;3.30;3.00;;;7.40;93.30;;;;;;5087854;28;20693;-70
2021/04/12 11:47:40;;;;;;;3.55;3.25;;;7.90;94.90;;;;;;5088146;28;20196;-70
2021/04/12 11:50:20;;;;;;;5.28;2.75;;;8.90;93.10;;;;;;5087957;28;20203;-70
2021/04/12 11:52:53;;;;;;;3.70;2.25;;;10.40;91.10;;;;;;5088381;28;20216;-70
2021/04/12 11:55:27;;;;;;;2.50;2.30;;;11.50;84.80;;;;;;5088856;28;20299;-70
2021/04/12 11:58:00;;;;;;;3.03;2.53;;;11.90;84.80;;;;;;5088143;28;20518;-71
2021/04/12 12:00:32;;;;;;;3.13;2.50;;;12.20;82.80;;;;;;5088533;28;20196;-71
2021/04/12 12:03:13;;;;;;;2.90;2.20;;;12.20;78.90;;;;;;5086705;28;20199;-70
2021/04/12 12:06:09;;;;;;;4.47;2.53;;;11.70;81.70;;;;;;5087476;28;21000;-68
2021/04/12 12:08:50;;;;;;;3.05;2.30;;;10.90;82.20;;;;;;5087778;28;20223;-69
2021/04/12 12:11:25;;;;;;;2.35;2.15;;;10.10;81.40;;;;;;5087843;28;20627;-69
2021/04/12 12:13:55;;;;;;;2.92;2.42;;;9.40;84.00;;;;;;5087930;28;20222;-69
2021/04/12 12:16:27;;;;;;;4.30;2.50;;;9.00;85.60;;;;;;5087896;28;20200;-69
2021/04/12 12:18:59;;;;;;;3.67;2.55;;;8.60;88.40;;;;;;5088042;28;20761;-69
2021/04/12 12:21:30;;;;;;;2.97;2.35;;;8.30;89.80;;;;;;5091439;28;20204;-69
2021/04/12 12:24:15;;;;;;;2.78;2.30;;;8.00;89.50;;;;;;5091802;28;20309;-69
2021/04/12 12:26:52;;;;;;;3.83;2.50;;;7.70;90.10;;;;;;5091564;28;20200;-69
2021/04/12 12:29:23;;;;;;;5.22;2.95;;;7.50;90.60;;;;;;5091205;28;20277;-69
2021/04/12 12:32:04;;;;;;;3.03;2.72;;;7.40;91.00;;;;;;5091503;28;20203;-69
2021/04/12 12:34:41;;;;;;;4.18;2.92;;;7.30;90.80;;;;;;5091586;28;20231;-69
2021/04/12 12:37:25;;;;;;;3.90;2.90;;;7.40;90.80;;;;;;5091655;28;20199;-69
2021/04/12 12:39:55;;;;;;;4.22;2.30;;;7.50;90.70;;;;;;5090809;28;20195;-69
2021/04/12 12:42:26;;;;;;;3.45;2.45;;;7.70;90.70;;;;;;5091598;28;20211;-68
2021/04/12 12:44:55;;;;;;;2.20;2.00;;;7.90;90.40;;;;;;5091260;28;20220;-69
2021/04/12 12:47:24;;;;;;;3.50;2.33;;;8.10;89.90;;;;;;5091420;28;20206;-68
2021/04/12 12:49:54;;;;;;;3.33;2.35;;;8.40;86.70;;;;;;5091058;28;20558;-69
2021/04/12 12:52:30;;;;;;;2.70;2.20;;;8.60;84.30;;;;;;5090591;28;20218;-69
2021/04/12 12:54:58;;;;;;;2.25;1.83;;;8.70;86.90;;;;;;5091058;28;20208;-69
2021/04/12 12:57:30;;;;;;;2.58;2.08;;;8.60;87.00;;;;;;5091226;28;20200;-69
2021/04/12 12:59:59;;;;;;;2.30;1.65;;;8.50;82.30;;;;;;5090824;28;20245;-69
2021/04/12 13:02:35;;;;;;;3.85;1.70;;;8.50;82.80;;;;;;5091407;28;20230;-69
2021/04/12 13:05:08;;;;;;;3.83;2.20;;;8.90;84.20;;;;;;5090546;28;20203;-69
2021/04/12 13:07:36;;;;;;;2.40;1.45;;;9.50;85.60;;;;;;5090878;28;20208;-69
2021/04/12 13:10:09;;;;;;;3.83;2.15;;;10.00;79.30;;;;;;5090634;28;20207;-71
2021/04/12 13:12:38;;;;;;;3.38;1.92;;;10.00;79.70;;;;;;5090970;28;20770;-69
2021/04/12 13:15:18;;;;;;;2.60;1.90;;;10.00;82.70;;;;;;5091224;28;20660;-69
2021/04/12 13:17:44;;;;;;;5.32;1.80;;;9.90;82.00;;;;;;5090718;28;20246;-69
2021/04/12 13:20:15;;;;;;;1.90;1.70;;;9.50;83.20;;;;;;5091013;28;20210;-69
2021/04/12 13:22:45;;;;;;;3.00;1.65;;;9.20;81.10;;;;;;5090298;28;20578;-69
2021/04/12 13:25:22;;;;;;;3.90;1.95;;;9.00;78.90;;;;;;5091072;28;20244;-69
2021/04/12 13:27:54;;;;;;;2.92;1.65;;;8.70;78.10;;;;;;5090357;28;20223;-68
2021/04/12 13:32:53;;;;;;;2.10;1.85;;;8.30;78.30;;;;;;5020851;28;20230;-72
2021/04/12 13:35:23;;;;;;;2.50;1.50;;;8.20;81.80;;;;;;5030727;28;20206;-72
2021/04/12 13:38:02;;;;;;;3.20;1.65;;;8.00;81.00;;;;;;5033821;28;20229;-73
2021/04/12 13:40:32;;;;;;;3.30;2.05;;;7.80;81.60;;;;;;5049648;28;20672;-73
2021/04/12 13:43:02;;;;;;;2.40;2.08;;;7.80;81.60;;;;;;5049962;28;20224;-73
2021/04/12 13:45:31;;;;;;;1.70;1.60;;;7.80;82.30;;;;;;5050534;28;20212;-73
2021/04/12 13:47:59;;;;;;;5.22;2.38;;;7.80;85.80;;;;;;5049931;28;20777;-73
2021/04/12 13:50:29;;;;;;;2.63;1.80;;;8.00;84.60;;;;;;5049935;28;20204;-72
2021/04/12 13:53:02;;;;;;;2.63;2.13;;;8.20;82.10;;;;;;5039049;28;20225;-73
2021/04/12 13:55:31;;;;;;;3.17;2.03;;;8.40;83.00;;;;;;5030124;28;20213;-72
2021/04/12 13:58:02;;;;;;;2.25;1.88;;;8.60;80.40;;;;;;5030384;28;20778;-73
2021/04/12 14:00:32;;;;;;;6.68;2.22;;;8.70;80.20;;;;;;5030157;28;20202;-72
2021/04/12 14:03:04;;;;;;;1.70;1.60;;;8.70;81.80;;;;;;5030436;28;20198;-72
2021/04/12 14:05:34;;;;;;;2.67;2.10;;;8.70;82.80;;;;;;5030574;28;20201;-72
2021/04/12 14:08:14;;;;;;;2.30;2.10;;;8.60;79.40;;;;;;5028644;28;20229;-72
2021/04/12 14:10:51;;;;;;;2.58;1.70;;;8.40;79.90;;;;;;5029856;28;20201;-72
2021/04/12 14:13:22;;;;;;;3.55;2.15;;;8.30;81.40;;;;;;5030224;28;20226;-72
2021/04/12 14:15:53;;;;;;;2.08;1.80;;;8.20;83.00;;;;;;5030536;28;20696;-72
2021/04/12 14:18:35;;;;;;;2.80;1.70;;;8.20;81.00;;;;;;5030315;28;20221;-72
2021/04/12 14:21:09;;;;;;;1.70;1.55;;;8.20;79.60;;;;;;5029678;28;20629;-72
2021/04/12 14:23:42;;;;;;;5.70;1.60;;;8.20;81.20;;;;;;5029944;28;20198;-72
2021/04/12 14:26:12;;;;;;;2.28;1.92;;;8.30;82.20;;;;;;5029750;28;20198;-72
2021/04/12 14:28:44;;;;;;;5.10;1.95;;;8.30;81.40;;;;;;5029944;28;20279;-72
2021/04/12 14:31:20;;;;;;;2.20;1.50;;;8.50;80.60;;;;;;5035404;28;20213;-73
2021/04/12 14:33:48;;;;;;;2.50;2.08;;;9.10;80.80;;;;;;5049740;28;20228;-73
2021/04/12 14:36:20;;;;;;;2.20;2.00;;;9.40;78.70;;;;;;5049354;28;20273;-72
2021/04/12 14:38:50;;;;;;;2.35;1.70;;;9.50;75.50;;;;;;5050162;28;20581;-72
2021/04/12 14:41:20;;;;;;;2.67;2.20;;;9.30;75.10;;;;;;5049656;28;20731;-72
2021/04/12 14:43:55;;;;;;;4.25;1.75;;;9.20;74.50;;;;;;5049052;28;20197;-72
2021/04/12 14:46:23;;;;;;;2.63;1.60;;;8.90;73.70;;;;;;5049564;28;20430;-73
2021/04/12 14:48:53;;;;;;;2.30;1.55;;;8.80;75.10;;;;;;5049698;28;20232;-72